Terminal Aerodrome Forecast
Issued by NWS Twin Cities, MN

Home | Current Version | Previous Version | Text Only | Print | Product List | Glossary On
Versions: 1 2 3 4 5 6 7 8 9 10 11 12 13 14 15 16 17 18 19
000
FTUS43 KMPX 190500
TAFSTC
TAF
KSTC 190521Z 1906/2006 16011KT P6SM BKN200
     FM191200 17013G20KT P6SM SCT015 OVC100
      TEMPO 1912/1915 BKN015
     FM191500 18015G22KT P6SM -SHRA OVC015
     FM192000 20013KT P6SM VCSH SCT020 OVC035
     FM200100 21009KT P6SM BKN045=

USA.gov is the U.S. government's official web portal to all federal, state and local government web resources and services.